Souhegan River @ Souhegan, Nh

Souhegan River at Merrimack
 Total Drainage Area: 171 sq. miles 
 Drainage Area Controlled by Corps Dams: 0 sq. miles (0%) 
 Warning Flow/Stage: 2,280 cfs / 6.5 feet 
 Flood Flow/Stage: 5,000 cfs / 9.0 feet 
Date Time
(Eastern)
Stage
(ft)
Flow
(cfs)
CSM
(cfs / sq. mi.)
Jan-31 02:15 pm 4.21 663 3.9
Jan-31 01:15 pm 4.22 668 3.9
Jan-31 12:15 pm 4.22 668 3.9
Jan-31 11:15 am 4.22 668 3.9
Jan-31 10:15 am 4.22 668 3.9
Jan-31 09:15 am 4.23 674 3.9
Jan-31 08:15 am 4.23 674 3.9
Jan-31 07:15 am 4.23 674 3.9
Jan-31 06:15 am 4.22 668 3.9
Jan-31 05:15 am 4.23 674 3.9
Jan-31 04:15 am 4.23 674 3.9
Jan-31 03:15 am 4.23 674 3.9
Jan-31 02:15 am 4.22 668 3.9
Jan-31 01:15 am 4.22 668 3.9
Jan-31 12:15 am 4.20 658 3.9
Jan-30 11:15 pm 4.19 653 3.8
Jan-30 10:15 pm 4.18 647 3.8
Jan-30 09:15 pm 4.18 647 3.8
Jan-30 08:15 pm 4.20 658 3.9
Jan-30 07:15 pm 4.21 663 3.9
Jan-30 06:15 pm 4.24 679 4.0
Jan-30 05:15 pm 4.26 690 4.0
Jan-30 04:15 pm 4.27 695 4.1
Jan-30 03:15 pm 4.28 701 4.1
Jan-30 02:15 pm 4.29 706 4.1
Report Generated January 31, 2023 03:39 pm